Time;durP1;ratioP1;P1;durP2;ratioP2;P2;SDS_P1;SDS_P2;PMS_P1;PMS_P2;Temp;Humidity;BMP_temperature;BMP_pressure;BME280_temperature;BME280_humidity;BME280_pressure;Samples;Min_cycle;Max_cycle;Signal;HPM_P1;HPM_P2
2023/05/23 00:01:06;;;;;;;7.95;6.50;;;;;;;;;;5036298;28;20033;-86
2023/05/23 00:03:32;;;;;;;10.75;6.40;;;;;;;;;;5039217;28;20384;-87
2023/05/23 00:05:57;;;;;;;8.35;6.43;;;;;;;;;;5039360;28;20068;-86
2023/05/23 00:08:24;;;;;;;8.25;6.90;;;;;;;;;;5040709;28;20089;-87
2023/05/23 00:10:50;;;;;;;8.30;6.47;;;;;;;;;;5041482;28;20034;-86
2023/05/23 00:13:16;;;;;;;9.38;6.78;;;;;;;;;;5038998;28;20414;-86
2023/05/23 00:15:42;;;;;;;10.55;6.43;;;;;;;;;;5051210;28;20036;-86
2023/05/23 00:18:09;;;;;;;7.75;6.35;;;;;;;;;;5055508;28;20121;-86
2023/05/23 00:20:42;;;;;;;9.95;7.00;;;;;;;;;;5053111;28;20028;-86
2023/05/23 00:23:08;;;;;;;10.73;6.80;;;;;;;;;;5037621;28;20068;-86
2023/05/23 00:25:35;;;;;;;8.18;6.35;;;;;;;;;;5039429;28;20120;-86
2023/05/23 00:28:01;;;;;;;10.32;6.10;;;;;;;;;;5039300;28;20534;-85
2023/05/23 00:30:31;;;;;;;10.57;6.43;;;;;;;;;;5039908;28;20030;-86
2023/05/23 00:32:57;;;;;;;9.00;6.43;;;;;;;;;;5040093;28;20037;-86
2023/05/23 00:35:23;;;;;;;8.82;6.45;;;;;;;;;;5054528;28;20033;-86
2023/05/23 00:37:50;;;;;;;8.40;6.40;;;;;;;;;;5053072;28;20030;-86
2023/05/23 00:40:19;;;;;;;7.97;6.25;;;;;;;;;;5047516;28;20045;-86
2023/05/23 00:42:45;;;;;;;8.93;6.57;;;;;;;;;;5046559;28;20117;-86
2023/05/23 00:45:11;;;;;;;8.57;6.60;;;;;;;;;;5025375;28;20033;-86
2023/05/23 00:47:39;;;;;;;8.40;6.65;;;;;;;;;;5040263;28;20043;-86
2023/05/23 00:50:08;;;;;;;8.40;6.30;;;;;;;;;;5040081;28;20016;-86
2023/05/23 00:52:34;;;;;;;11.43;6.90;;;;;;;;;;5039454;28;20525;-86
2023/05/23 00:55:00;;;;;;;8.60;6.47;;;;;;;;;;5039463;28;20076;-86
2023/05/23 00:57:27;;;;;;;9.55;6.45;;;;;;;;;;5038944;28;20044;-86
2023/05/23 00:59:52;;;;;;;15.13;6.95;;;;;;;;;;5045751;28;20045;-86
2023/05/23 01:02:20;;;;;;;11.63;6.72;;;;;;;;;;5028373;28;20071;-86
2023/05/23 01:04:53;;;;;;;11.60;6.63;;;;;;;;;;5043401;28;20045;-85
2023/05/23 01:07:19;;;;;;;8.00;6.45;;;;;;;;;;5039631;28;20049;-85
2023/05/23 01:09:44;;;;;;;11.50;6.80;;;;;;;;;;5042821;28;20042;-86
2023/05/23 01:12:18;;;;;;;9.23;6.50;;;;;;;;;;5026263;28;20044;-86
2023/05/23 01:15:11;;;;;;;8.73;6.35;;;;;;;;;;5019772;28;20035;-85
2023/05/23 01:18:02;;;;;;;9.05;6.40;;;;;;;;;;5042948;28;20037;-86
2023/05/23 01:20:37;;;;;;;8.65;6.32;;;;;;;;;;5047990;28;20033;-86
2023/05/23 01:23:22;;;;;;;9.00;6.25;;;;;;;;;;5059215;28;20033;-86
2023/05/23 01:26:09;;;;;;;9.93;6.45;;;;;;;;;;5041645;28;20547;-86
2023/05/23 01:28:39;;;;;;;8.35;6.45;;;;;;;;;;5017944;28;20041;-86
2023/05/23 01:31:07;;;;;;;8.50;6.05;;;;;;;;;;5050259;28;20037;-86
2023/05/23 01:33:34;;;;;;;8.75;6.50;;;;;;;;;;5028728;28;20034;-86
2023/05/23 01:36:02;;;;;;;9.77;6.60;;;;;;;;;;5042383;28;20048;-86
2023/05/23 01:38:28;;;;;;;7.50;6.18;;;;;;;;;;5043328;28;20029;-86
2023/05/23 01:40:53;;;;;;;10.82;6.53;;;;;;;;;;5042553;28;20414;-86
2023/05/23 01:43:20;;;;;;;8.70;6.80;;;;;;;;;;5042474;28;20033;-86
2023/05/23 01:45:47;;;;;;;11.55;6.55;;;;;;;;;;5042120;28;20041;-86
2023/05/23 01:48:14;;;;;;;8.43;6.80;;;;;;;;;;5046266;28;20021;-86
2023/05/23 01:50:44;;;;;;;9.77;6.63;;;;;;;;;;5028143;28;20407;-86
2023/05/23 01:53:11;;;;;;;9.05;6.63;;;;;;;;;;5038219;28;20049;-86
2023/05/23 01:55:40;;;;;;;8.88;6.95;;;;;;;;;;5042498;28;20498;-86
2023/05/23 01:58:07;;;;;;;10.23;7.18;;;;;;;;;;5039104;28;20087;-85
2023/05/23 02:00:32;;;;;;;8.73;6.75;;;;;;;;;;5043315;28;20043;-86
2023/05/23 02:02:58;;;;;;;8.02;6.45;;;;;;;;;;5033694;28;20036;-86
2023/05/23 02:05:24;;;;;;;9.60;7.10;;;;;;;;;;5030559;28;20036;-86
2023/05/23 02:07:50;;;;;;;9.05;6.60;;;;;;;;;;5044875;28;20056;-86
2023/05/23 02:10:16;;;;;;;10.05;7.18;;;;;;;;;;5024458;28;20041;-86
2023/05/23 02:12:41;;;;;;;9.77;6.85;;;;;;;;;;5024291;28;20033;-86
2023/05/23 02:15:08;;;;;;;12.40;7.05;;;;;;;;;;5029712;28;20534;-86
2023/05/23 02:17:34;;;;;;;10.27;7.10;;;;;;;;;;5030401;28;20041;-86
2023/05/23 02:20:00;;;;;;;9.00;6.72;;;;;;;;;;5033020;28;20097;-86
2023/05/23 02:22:25;;;;;;;11.40;6.50;;;;;;;;;;5028207;28;20033;-86
2023/05/23 02:24:51;;;;;;;9.88;6.60;;;;;;;;;;5025664;28;20087;-86
2023/05/23 02:27:17;;;;;;;10.57;6.25;;;;;;;;;;5041678;28;20037;-85
2023/05/23 02:29:43;;;;;;;9.10;6.82;;;;;;;;;;5024102;28;20057;-86
2023/05/23 02:32:09;;;;;;;10.18;6.82;;;;;;;;;;5042239;28;20091;-86
2023/05/23 02:34:34;;;;;;;8.85;6.70;;;;;;;;;;5041793;28;20026;-86
2023/05/23 02:37:00;;;;;;;8.25;6.60;;;;;;;;;;5041762;28;20037;-86
2023/05/23 02:39:26;;;;;;;10.85;6.53;;;;;;;;;;5041104;28;20091;-86
2023/05/23 02:41:53;;;;;;;7.32;6.43;;;;;;;;;;5027716;28;20421;-86
2023/05/23 02:44:18;;;;;;;9.73;6.82;;;;;;;;;;5041106;28;20033;-86
2023/05/23 02:46:47;;;;;;;8.88;6.55;;;;;;;;;;5038914;28;20131;-86
2023/05/23 02:49:12;;;;;;;9.45;6.95;;;;;;;;;;5036037;28;20037;-86
2023/05/23 02:51:38;;;;;;;8.40;6.40;;;;;;;;;;5031942;28;20029;-86
2023/05/23 02:54:03;;;;;;;10.18;6.95;;;;;;;;;;5046960;28;20029;-86
2023/05/23 02:56:32;;;;;;;9.57;6.82;;;;;;;;;;5023896;28;20107;-86
2023/05/23 02:58:58;;;;;;;10.77;6.85;;;;;;;;;;5028002;28;20042;-85
2023/05/23 03:01:23;;;;;;;9.98;6.97;;;;;;;;;;5058324;28;20029;-86
2023/05/23 03:03:49;;;;;;;7.57;6.22;;;;;;;;;;5037146;28;20497;-86
2023/05/23 03:06:15;;;;;;;9.93;6.70;;;;;;;;;;5034463;28;20041;-86
2023/05/23 03:08:42;;;;;;;17.02;7.10;;;;;;;;;;5031290;28;20065;-86
2023/05/23 03:11:08;;;;;;;10.43;7.10;;;;;;;;;;5028656;28;20582;-86
2023/05/23 03:13:34;;;;;;;9.60;6.93;;;;;;;;;;5025080;28;20037;-85
2023/05/23 03:16:00;;;;;;;9.55;7.03;;;;;;;;;;5024043;28;20091;-85
2023/05/23 03:18:26;;;;;;;9.85;7.03;;;;;;;;;;5041316;28;20029;-85
2023/05/23 03:20:52;;;;;;;9.55;7.35;;;;;;;;;;5041044;28;20487;-85
2023/05/23 03:23:21;;;;;;;11.15;6.78;;;;;;;;;;5023431;28;20080;-85
2023/05/23 03:25:46;;;;;;;9.27;6.90;;;;;;;;;;5040998;28;20045;-85
2023/05/23 03:28:12;;;;;;;11.27;7.15;;;;;;;;;;5040786;28;20402;-85
2023/05/23 03:30:37;;;;;;;8.38;6.95;;;;;;;;;;5037774;28;20037;-85
2023/05/23 03:33:03;;;;;;;11.32;7.75;;;;;;;;;;5005887;28;20089;-86
2023/05/23 03:35:29;;;;;;;11.20;7.88;;;;;;;;;;5037761;28;20021;-85
2023/05/23 03:37:54;;;;;;;10.13;7.20;;;;;;;;;;5035242;28;20565;-85
2023/05/23 03:40:20;;;;;;;10.30;7.03;;;;;;;;;;5031652;28;20502;-85
2023/05/23 03:42:48;;;;;;;9.60;7.25;;;;;;;;;;5039632;28;20036;-85
2023/05/23 03:45:14;;;;;;;11.05;7.47;;;;;;;;;;5026244;28;20511;-85
2023/05/23 03:47:41;;;;;;;13.15;6.93;;;;;;;;;;5022491;28;20087;-85
2023/05/23 03:50:07;;;;;;;11.02;6.97;;;;;;;;;;5021665;28;20128;-85
2023/05/23 03:52:33;;;;;;;10.60;7.47;;;;;;;;;;5022177;28;20092;-85
2023/05/23 03:54:59;;;;;;;8.98;7.45;;;;;;;;;;5030596;28;20056;-85
2023/05/23 03:57:25;;;;;;;9.77;6.63;;;;;;;;;;5030406;28;20056;-85
2023/05/23 03:59:50;;;;;;;9.95;7.07;;;;;;;;;;5045886;28;20048;-85
2023/05/23 04:02:16;;;;;;;10.70;7.38;;;;;;;;;;5023876;28;20411;-85
2023/05/23 04:04:42;;;;;;;10.10;7.50;;;;;;;;;;5039318;28;20471;-85
2023/05/23 04:07:08;;;;;;;14.40;7.45;;;;;;;;;;5038885;28;20033;-86
2023/05/23 04:09:35;;;;;;;11.00;7.45;;;;;;;;;;5026349;28;20133;-85
2023/05/23 04:12:03;;;;;;;10.35;7.35;;;;;;;;;;5034945;28;20037;-85
2023/05/23 04:14:28;;;;;;;11.23;7.40;;;;;;;;;;5039501;28;20033;-85
2023/05/23 04:16:55;;;;;;;11.30;7.90;;;;;;;;;;5033943;28;20029;-85
2023/05/23 04:19:21;;;;;;;10.10;7.20;;;;;;;;;;5035541;28;20038;-85
2023/05/23 04:21:47;;;;;;;10.43;7.57;;;;;;;;;;5053376;28;20043;-85
2023/05/23 04:24:15;;;;;;;11.57;7.00;;;;;;;;;;5036911;28;20140;-85
2023/05/23 04:26:41;;;;;;;12.80;7.70;;;;;;;;;;5034543;28;20457;-85
2023/05/23 04:29:08;;;;;;;11.95;7.30;;;;;;;;;;5031237;28;20037;-85
2023/05/23 04:31:34;;;;;;;10.20;7.60;;;;;;;;;;5027998;28;20124;-85
2023/05/23 04:34:01;;;;;;;11.95;7.85;;;;;;;;;;5029789;28;20060;-85
2023/05/23 04:36:29;;;;;;;9.02;7.40;;;;;;;;;;5029113;28;20041;-85
2023/05/23 04:38:54;;;;;;;10.52;7.57;;;;;;;;;;5027950;28;20037;-85
2023/05/23 04:41:23;;;;;;;9.38;7.40;;;;;;;;;;5028110;28;20403;-85
2023/05/23 04:44:05;;;;;;;11.68;7.75;;;;;;;;;;5032452;28;20025;-85
2023/05/23 04:46:40;;;;;;;12.70;7.95;;;;;;;;;;5033958;28;20037;-85
2023/05/23 04:49:15;;;;;;;13.60;7.78;;;;;;;;;;5046718;28;20402;-85
2023/05/23 04:51:42;;;;;;;13.25;7.70;;;;;;;;;;5030339;28;20044;-86
2023/05/23 04:54:14;;;;;;;17.70;7.95;;;;;;;;;;5027382;28;20659;-85
2023/05/23 04:56:40;;;;;;;13.98;8.05;;;;;;;;;;5041151;28;20758;-85
2023/05/23 04:59:07;;;;;;;12.40;8.15;;;;;;;;;;5025816;28;20033;-85
2023/05/23 05:01:34;;;;;;;12.50;8.25;;;;;;;;;;5052222;28;20048;-86
2023/05/23 05:03:59;;;;;;;12.85;8.25;;;;;;;;;;5031456;28;20029;-86
2023/05/23 05:06:26;;;;;;;13.43;8.60;;;;;;;;;;5028966;28;20037;-85
2023/05/23 05:08:51;;;;;;;13.05;8.38;;;;;;;;;;5025294;28;20042;-86
2023/05/23 05:11:19;;;;;;;11.98;8.77;;;;;;;;;;5023190;28;20037;-86
2023/05/23 05:13:44;;;;;;;12.95;8.35;;;;;;;;;;5040405;28;20059;-85
2023/05/23 05:16:10;;;;;;;13.57;8.57;;;;;;;;;;5029370;28;20053;-85
2023/05/23 05:18:37;;;;;;;10.38;8.00;;;;;;;;;;5028050;28;20087;-85
2023/05/23 05:21:03;;;;;;;13.10;8.45;;;;;;;;;;5040852;28;20060;-86
2023/05/23 05:23:30;;;;;;;11.43;8.25;;;;;;;;;;5025395;28;20029;-86
2023/05/23 05:25:57;;;;;;;10.43;8.52;;;;;;;;;;5024123;28;20517;-86
2023/05/23 05:28:23;;;;;;;9.35;7.53;;;;;;;;;;5022215;28;20112;-85
2023/05/23 05:30:53;;;;;;;11.77;8.65;;;;;;;;;;5009510;28;20038;-85
2023/05/23 05:33:23;;;;;;;12.50;9.13;;;;;;;;;;5034844;28;20515;-85
2023/05/23 05:35:55;;;;;;;14.63;8.05;;;;;;;;;;5031352;28;20032;-85
2023/05/23 05:38:21;;;;;;;16.38;8.20;;;;;;;;;;5028569;28;20526;-85
2023/05/23 05:40:46;;;;;;;9.55;8.20;;;;;;;;;;5024859;28;20040;-85
2023/05/23 05:43:12;;;;;;;12.00;8.20;;;;;;;;;;5023294;28;20029;-85
2023/05/23 05:45:39;;;;;;;14.40;8.02;;;;;;;;;;5020947;28;20040;-85
2023/05/23 05:48:05;;;;;;;11.32;9.15;;;;;;;;;;5018012;28;20038;-85
2023/05/23 05:50:30;;;;;;;11.98;8.50;;;;;;;;;;5019585;28;20052;-85
2023/05/23 05:52:56;;;;;;;12.27;9.05;;;;;;;;;;5040709;28;20571;-85
2023/05/23 05:55:21;;;;;;;13.05;8.30;;;;;;;;;;5025741;28;20119;-87
2023/05/23 05:57:51;;;;;;;12.75;8.55;;;;;;;;;;5024834;28;20036;-87
2023/05/23 06:00:18;;;;;;;10.85;8.63;;;;;;;;;;5022167;28;20509;-85
2023/05/23 06:02:50;;;;;;;12.15;8.40;;;;;;;;;;5008181;28;20041;-85
2023/05/23 06:05:29;;;;;;;11.68;8.70;;;;;;;;;;5033392;28;20056;-85
2023/05/23 06:07:55;;;;;;;13.38;9.07;;;;;;;;;;5031658;28;20041;-86
2023/05/23 06:10:20;;;;;;;11.43;9.02;;;;;;;;;;5027275;28;20025;-86
2023/05/23 06:12:46;;;;;;;11.60;8.65;;;;;;;;;;5008350;28;20444;-85
2023/05/23 06:15:13;;;;;;;10.75;8.52;;;;;;;;;;5023133;28;20057;-85
2023/05/23 06:17:39;;;;;;;11.93;8.90;;;;;;;;;;5022515;28;20037;-85
2023/05/23 06:20:06;;;;;;;12.07;8.40;;;;;;;;;;5021439;28;20116;-86
2023/05/23 06:22:34;;;;;;;14.70;8.75;;;;;;;;;;5022366;28;20036;-86
2023/05/23 06:25:00;;;;;;;11.63;8.38;;;;;;;;;;5023293;28;20025;-86
2023/05/23 06:27:25;;;;;;;14.93;9.10;;;;;;;;;;5038354;28;20033;-86
2023/05/23 06:29:51;;;;;;;12.50;8.68;;;;;;;;;;5041135;28;20042;-85
2023/05/23 06:32:16;;;;;;;12.07;8.45;;;;;;;;;;5026420;28;20043;-86
2023/05/23 06:34:42;;;;;;;11.68;8.65;;;;;;;;;;5039510;28;20036;-86
2023/05/23 06:37:09;;;;;;;10.32;8.27;;;;;;;;;;5038198;28;20054;-86
2023/05/23 06:39:34;;;;;;;10.88;8.10;;;;;;;;;;5050258;28;20029;-86
2023/05/23 06:42:00;;;;;;;12.57;8.57;;;;;;;;;;5050142;28;20033;-85
2023/05/23 06:44:32;;;;;;;11.10;8.52;;;;;;;;;;5027359;28;20041;-85
2023/05/23 06:47:01;;;;;;;10.65;8.75;;;;;;;;;;5036400;28;20060;-85
2023/05/23 06:49:26;;;;;;;11.45;8.25;;;;;;;;;;5048780;28;20044;-85
2023/05/23 06:51:52;;;;;;;14.02;8.07;;;;;;;;;;5037705;28;20056;-85
2023/05/23 06:54:18;;;;;;;11.15;8.15;;;;;;;;;;5015730;28;20033;-85
2023/05/23 06:56:44;;;;;;;9.77;8.00;;;;;;;;;;5036008;28;20037;-86
2023/05/23 06:59:10;;;;;;;13.30;8.18;;;;;;;;;;5018273;28;20450;-86
2023/05/23 07:01:35;;;;;;;11.40;8.20;;;;;;;;;;5022202;28;20043;-86
2023/05/23 07:04:01;;;;;;;11.93;8.65;;;;;;;;;;5038332;28;20087;-86
2023/05/23 07:06:27;;;;;;;9.77;7.82;;;;;;;;;;5036778;28;20033;-86
2023/05/23 07:08:53;;;;;;;11.88;8.20;;;;;;;;;;5019973;28;20037;-86
2023/05/23 07:11:21;;;;;;;15.45;8.20;;;;;;;;;;5018699;28;20036;-86
2023/05/23 07:13:53;;;;;;;9.13;7.78;;;;;;;;;;5027791;28;20045;-87
2023/05/23 07:16:31;;;;;;;12.00;8.18;;;;;;;;;;5038569;28;20049;-86
2023/05/23 07:19:02;;;;;;;10.88;7.93;;;;;;;;;;5021675;28;20045;-86
2023/05/23 07:21:28;;;;;;;11.75;8.57;;;;;;;;;;5018936;28;20035;-86
2023/05/23 07:23:53;;;;;;;13.43;8.32;;;;;;;;;;5035460;28;20120;-85
2023/05/23 07:26:20;;;;;;;11.55;7.55;;;;;;;;;;5027345;28;20047;-86
2023/05/23 07:28:50;;;;;;;11.57;8.00;;;;;;;;;;5030856;28;20033;-85
2023/05/23 07:31:16;;;;;;;14.57;8.23;;;;;;;;;;5027857;28;20033;-84
2023/05/23 07:33:43;;;;;;;13.50;8.82;;;;;;;;;;5020994;28;20029;-85
2023/05/23 07:36:10;;;;;;;30.58;9.00;;;;;;;;;;5035988;28;20132;-86
2023/05/23 07:38:36;;;;;;;14.98;7.80;;;;;;;;;;5049022;28;20065;-86
2023/05/23 07:41:01;;;;;;;69.72;9.68;;;;;;;;;;5057453;28;20041;-86
2023/05/23 07:43:27;;;;;;;9.85;7.22;;;;;;;;;;5035179;28;20037;-86
2023/05/23 07:45:52;;;;;;;9.27;7.30;;;;;;;;;;5046888;28;20045;-85
2023/05/23 07:48:18;;;;;;;11.45;7.80;;;;;;;;;;5049110;28;20033;-86
2023/05/23 07:50:43;;;;;;;13.07;7.60;;;;;;;;;;5048268;28;20128;-86
2023/05/23 07:53:09;;;;;;;10.27;7.82;;;;;;;;;;5027242;28;20072;-86
2023/05/23 07:55:35;;;;;;;11.73;7.78;;;;;;;;;;5025206;28;20033;-86
2023/05/23 07:58:01;;;;;;;10.77;7.80;;;;;;;;;;5041136;28;20036;-87
2023/05/23 08:00:27;;;;;;;9.65;8.15;;;;;;;;;;5038964;28;20507;-87
2023/05/23 08:02:59;;;;;;;10.65;7.55;;;;;;;;;;5028689;28;20091;-87
2023/05/23 08:05:30;;;;;;;12.32;8.00;;;;;;;;;;5022225;28;20041;-85
2023/05/23 08:07:56;;;;;;;11.30;8.20;;;;;;;;;;5020525;28;20129;-85
2023/05/23 08:10:24;;;;;;;14.82;8.27;;;;;;;;;;5037717;28;20407;-86
2023/05/23 08:12:53;;;;;;;12.13;7.70;;;;;;;;;;5034721;28;20068;-85
2023/05/23 08:15:19;;;;;;;11.07;7.97;;;;;;;;;;5033144;28;20037;-86
2023/05/23 08:17:50;;;;;;;10.65;8.00;;;;;;;;;;5015546;28;20043;-86
2023/05/23 08:20:16;;;;;;;8.80;7.47;;;;;;;;;;5016609;28;20029;-85
2023/05/23 08:22:44;;;;;;;12.55;8.35;;;;;;;;;;5016188;28;20037;-85
2023/05/23 08:25:09;;;;;;;9.45;7.40;;;;;;;;;;5018098;28;20030;-85
2023/05/23 08:27:37;;;;;;;10.27;7.43;;;;;;;;;;5025393;28;20033;-86
2023/05/23 08:30:14;;;;;;;11.00;7.70;;;;;;;;;;5034366;28;20036;-85
2023/05/23 08:32:39;;;;;;;11.07;7.30;;;;;;;;;;5028643;28;20037;-86
2023/05/23 08:35:05;;;;;;;10.60;7.10;;;;;;;;;;5026372;28;20055;-85
2023/05/23 08:37:31;;;;;;;10.77;7.03;;;;;;;;;;5024125;28;20048;-85
2023/05/23 08:39:57;;;;;;;13.40;6.57;;;;;;;;;;5023017;28;20037;-87
2023/05/23 08:42:37;;;;;;;8.77;5.97;;;;;;;;;;5035975;28;20024;-86
2023/05/23 08:45:05;;;;;;;7.28;5.57;;;;;;;;;;5016656;28;20037;-88
2023/05/23 08:47:35;;;;;;;7.18;5.43;;;;;;;;;;5024450;28;20033;-87
2023/05/23 08:50:05;;;;;;;7.18;5.28;;;;;;;;;;5012375;28;20025;-84
2023/05/23 08:52:32;;;;;;;8.48;5.60;;;;;;;;;;5037799;28;20059;-85
2023/05/23 08:55:00;;;;;;;8.07;5.95;;;;;;;;;;5040587;28;20103;-85
2023/05/23 08:57:29;;;;;;;7.55;5.82;;;;;;;;;;5031657;28;20033;-85
2023/05/23 09:00:00;;;;;;;10.88;6.20;;;;;;;;;;5028693;28;20502;-84
2023/05/23 09:02:26;;;;;;;12.13;6.72;;;;;;;;;;5042385;28;20029;-84
2023/05/23 09:04:59;;;;;;;8.18;6.05;;;;;;;;;;5020717;28;20025;-84
2023/05/23 09:07:27;;;;;;;9.95;6.25;;;;;;;;;;5016255;28;20045;-84
2023/05/23 09:09:53;;;;;;;7.20;5.35;;;;;;;;;;5029306;28;20029;-84
2023/05/23 09:12:22;;;;;;;8.15;5.65;;;;;;;;;;5028798;28;20120;-84
2023/05/23 09:14:49;;;;;;;10.32;5.03;;;;;;;;;;5042859;28;20064;-85
2023/05/23 09:17:17;;;;;;;6.47;4.78;;;;;;;;;;5026615;28;20037;-85
2023/05/23 09:19:46;;;;;;;6.63;5.10;;;;;;;;;;5035858;28;20521;-83
2023/05/23 09:22:26;;;;;;;6.55;4.60;;;;;;;;;;5041741;28;20051;-85
2023/05/23 09:25:07;;;;;;;6.80;4.43;;;;;;;;;;5023239;28;20069;-85
2023/05/23 09:27:34;;;;;;;6.82;4.72;;;;;;;;;;5043168;28;20029;-85
2023/05/23 09:30:05;;;;;;;10.50;5.00;;;;;;;;;;5057948;28;20395;-85
2023/05/23 09:32:31;;;;;;;8.75;4.78;;;;;;;;;;5035479;28;20044;-87
2023/05/23 09:34:58;;;;;;;6.05;4.53;;;;;;;;;;5033587;28;20033;-85
2023/05/23 09:37:47;;;;;;;5.95;4.70;;;;;;;;;;5030434;28;20129;-85
2023/05/23 09:40:13;;;;;;;6.82;4.60;;;;;;;;;;5042531;28;20036;-84
2023/05/23 09:42:45;;;;;;;6.55;4.70;;;;;;;;;;5025597;28;20083;-85
2023/05/23 09:45:12;;;;;;;7.60;4.68;;;;;;;;;;5055680;28;20352;-85
2023/05/23 09:47:38;;;;;;;6.38;4.50;;;;;;;;;;5038434;28;20028;-85
2023/05/23 09:50:04;;;;;;;6.90;4.70;;;;;;;;;;5051898;28;20111;-85
2023/05/23 09:52:39;;;;;;;6.10;5.00;;;;;;;;;;5028865;28;20072;-85
2023/05/23 09:55:06;;;;;;;8.32;4.85;;;;;;;;;;5044550;28;20038;-85
2023/05/23 09:57:37;;;;;;;7.03;4.65;;;;;;;;;;5039047;28;20055;-87
2023/05/23 10:00:12;;;;;;;6.78;4.78;;;;;;;;;;5046020;28;20096;-86
2023/05/23 10:02:56;;;;;;;10.13;4.90;;;;;;;;;;5041579;28;20049;-87
2023/05/23 10:05:36;;;;;;;7.88;5.10;;;;;;;;;;5048467;28;20064;-86
2023/05/23 10:08:09;;;;;;;7.60;5.22;;;;;;;;;;5044863;28;20057;-85
2023/05/23 10:11:04;;;;;;;7.63;5.63;;;;;;;;;;5045675;28;20049;-86
2023/05/23 10:13:30;;;;;;;10.43;5.20;;;;;;;;;;4996746;28;20284;-85
2023/05/23 10:16:08;;;;;;;7.15;5.40;;;;;;;;;;5037032;28;20705;-85
2023/05/23 10:18:39;;;;;;;7.97;5.05;;;;;;;;;;5044268;28;20044;-85
2023/05/23 10:21:11;;;;;;;8.73;5.50;;;;;;;;;;5047638;28;20704;-85
2023/05/23 10:23:38;;;;;;;8.50;5.13;;;;;;;;;;5043365;28;20079;-85
2023/05/23 10:26:04;;;;;;;6.78;4.70;;;;;;;;;;5040391;28;20029;-85
2023/05/23 10:28:33;;;;;;;8.98;5.47;;;;;;;;;;5034576;28;20041;-86
2023/05/23 10:30:59;;;;;;;8.57;6.25;;;;;;;;;;5034747;28;20564;-84
2023/05/23 10:33:35;;;;;;;7.70;5.25;;;;;;;;;;5018031;28;20045;-86
2023/05/23 10:36:18;;;;;;;5.72;4.70;;;;;;;;;;5034028;28;20052;-85
2023/05/23 10:38:43;;;;;;;9.30;4.93;;;;;;;;;;5035644;28;20047;-85
2023/05/23 10:41:09;;;;;;;6.40;4.82;;;;;;;;;;5036409;28;20033;-85
2023/05/23 10:43:44;;;;;;;6.53;5.07;;;;;;;;;;5034524;28;20447;-86
2023/05/23 10:46:13;;;;;;;7.25;5.03;;;;;;;;;;5023755;28;20032;-86
2023/05/23 10:48:43;;;;;;;7.45;5.32;;;;;;;;;;5037913;28;20097;-87
2023/05/23 10:51:08;;;;;;;9.07;5.13;;;;;;;;;;5042910;28;20037;-87
2023/05/23 10:53:36;;;;;;;14.05;5.97;;;;;;;;;;5023450;28;20059;-86
2023/05/23 10:56:05;;;;;;;8.20;5.40;;;;;;;;;;5036532;28;20639;-86
2023/05/23 10:58:32;;;;;;;7.50;5.00;;;;;;;;;;5033263;28;20093;-87
2023/05/23 11:01:11;;;;;;;7.53;4.72;;;;;;;;;;5044222;28;20045;-88
2023/05/23 11:04:03;;;;;;;8.85;5.00;;;;;;;;;;5056383;28;20036;-88
2023/05/23 11:06:47;;;;;;;7.18;5.60;;;;;;;;;;5039916;28;20415;-88
2023/05/23 11:09:20;;;;;;;7.20;5.35;;;;;;;;;;5032433;28;20044;-87
2023/05/23 11:11:53;;;;;;;6.70;4.85;;;;;;;;;;5041973;28;20072;-86
2023/05/23 11:14:29;;;;;;;8.50;5.47;;;;;;;;;;5042478;28;20037;-87
2023/05/23 11:16:55;;;;;;;6.20;5.00;;;;;;;;;;5045896;28;20055;-86
2023/05/23 11:19:24;;;;;;;5.75;4.90;;;;;;;;;;5054804;28;20448;-87
2023/05/23 11:21:56;;;;;;;6.93;4.82;;;;;;;;;;5048257;28;20410;-86
2023/05/23 11:24:22;;;;;;;8.40;5.07;;;;;;;;;;5035646;28;20060;-86
2023/05/23 11:26:59;;;;;;;7.05;5.80;;;;;;;;;;5038036;28;20040;-87
2023/05/23 11:29:27;;;;;;;9.27;5.68;;;;;;;;;;5040425;28;20455;-87
2023/05/23 11:31:55;;;;;;;10.38;5.88;;;;;;;;;;5033983;28;20156;-86
2023/05/23 11:34:21;;;;;;;6.70;5.35;;;;;;;;;;5034913;28;20124;-88
2023/05/23 11:36:51;;;;;;;6.22;5.00;;;;;;;;;;5038070;28;20029;-86
2023/05/23 11:39:18;;;;;;;6.05;5.13;;;;;;;;;;5029057;28;20040;-86
2023/05/23 11:41:43;;;;;;;6.95;5.47;;;;;;;;;;5044197;28;20035;-86
2023/05/23 11:44:12;;;;;;;8.35;5.13;;;;;;;;;;5041633;28;20076;-87
2023/05/23 11:46:39;;;;;;;8.82;5.28;;;;;;;;;;5038679;28;20494;-87
2023/05/23 11:49:11;;;;;;;6.65;4.60;;;;;;;;;;5035975;28;20560;-87
2023/05/23 11:51:37;;;;;;;6.38;4.57;;;;;;;;;;5032784;28;20037;-86
2023/05/23 11:54:02;;;;;;;5.43;4.57;;;;;;;;;;5035819;28;20044;-87
2023/05/23 11:56:28;;;;;;;6.55;4.95;;;;;;;;;;5035162;28;20060;-87
2023/05/23 11:58:56;;;;;;;8.52;5.00;;;;;;;;;;5037521;28;20041;-86
2023/05/23 12:01:30;;;;;;;6.50;4.90;;;;;;;;;;5044514;28;20313;-88
2023/05/23 12:03:56;;;;;;;6.38;4.47;;;;;;;;;;5041773;28;20040;-88
2023/05/23 12:06:23;;;;;;;7.18;5.05;;;;;;;;;;5035285;28;20029;-87
2023/05/23 12:08:50;;;;;;;6.63;5.13;;;;;;;;;;5046382;28;20410;-87
2023/05/23 12:11:16;;;;;;;7.00;4.63;;;;;;;;;;5035717;28;20076;-87
2023/05/23 12:13:42;;;;;;;8.07;5.32;;;;;;;;;;5036408;28;20061;-87
2023/05/23 12:16:07;;;;;;;7.32;5.28;;;;;;;;;;5040466;28;20066;-87
2023/05/23 12:18:34;;;;;;;7.55;5.10;;;;;;;;;;5040062;28;20041;-86
2023/05/23 12:21:06;;;;;;;6.75;4.72;;;;;;;;;;5036079;28;20021;-86
2023/05/23 12:23:33;;;;;;;9.30;5.40;;;;;;;;;;5039562;28;20037;-87
2023/05/23 12:25:58;;;;;;;6.72;4.90;;;;;;;;;;5034840;28;20084;-86
2023/05/23 12:28:42;;;;;;;7.15;4.63;;;;;;;;;;5033027;28;20073;-86
2023/05/23 12:31:11;;;;;;;;;;;;;;;;;;5035859;28;20038;-84
2023/05/23 12:33:44;;;;;;;11.25;4.95;;;;;;;;;;5036253;28;19955;-87
2023/05/23 12:36:10;;;;;;;5.95;4.75;;;;;;;;;;5032900;28;20021;-88
2023/05/23 12:38:37;;;;;;;5.68;5.07;;;;;;;;;;5041380;28;20472;-88
2023/05/23 12:41:10;;;;;;;7.75;5.93;;;;;;;;;;5051213;28;20495;-89
2023/05/23 12:43:39;;;;;;;9.55;5.68;;;;;;;;;;5029351;28;20029;-87
2023/05/23 12:46:08;;;;;;;7.55;5.93;;;;;;;;;;5032832;28;20133;-88
2023/05/23 12:48:34;;;;;;;7.45;5.93;;;;;;;;;;5034247;28;20044;-87
2023/05/23 12:51:01;;;;;;;8.55;6.15;;;;;;;;;;5034853;28;20128;-87
2023/05/23 12:53:27;;;;;;;10.80;6.90;;;;;;;;;;5017628;28;20541;-88
2023/05/23 12:55:53;;;;;;;9.25;6.72;;;;;;;;;;5054190;28;20041;-87
2023/05/23 12:58:19;;;;;;;9.50;6.45;;;;;;;;;;5041000;28;20043;-88
2023/05/23 13:00:44;;;;;;;9.27;6.70;;;;;;;;;;5054373;28;20024;-88
2023/05/23 13:03:10;;;;;;;8.43;6.03;;;;;;;;;;5052877;28;20040;-88
2023/05/23 13:05:36;;;;;;;9.13;6.38;;;;;;;;;;5032579;28;20467;-88
2023/05/23 13:08:02;;;;;;;10.15;6.40;;;;;;;;;;5030260;28;20040;-87
2023/05/23 13:10:27;;;;;;;9.75;6.78;;;;;;;;;;5043634;28;20042;-88
2023/05/23 13:12:53;;;;;;;8.50;6.30;;;;;;;;;;5040309;28;20636;-88
2023/05/23 13:15:19;;;;;;;9.20;6.88;;;;;;;;;;5020055;28;20037;-88
2023/05/23 13:17:45;;;;;;;8.60;7.03;;;;;;;;;;5038446;28;20172;-87
2023/05/23 13:20:13;;;;;;;12.10;7.00;;;;;;;;;;5037906;28;20056;-87
2023/05/23 13:22:39;;;;;;;8.63;7.43;;;;;;;;;;5040544;28;20029;-87
2023/05/23 13:25:06;;;;;;;10.40;7.40;;;;;;;;;;5037687;28;20407;-87
2023/05/23 13:27:31;;;;;;;9.10;6.75;;;;;;;;;;5038106;28;20057;-87
2023/05/23 13:29:57;;;;;;;8.20;6.45;;;;;;;;;;5037976;28;20406;-87
2023/05/23 13:32:22;;;;;;;11.77;6.55;;;;;;;;;;5035913;28;20035;-87
2023/05/23 13:34:48;;;;;;;9.38;6.80;;;;;;;;;;5034676;28;20442;-88
2023/05/23 13:37:13;;;;;;;8.32;6.93;;;;;;;;;;5044859;28;20372;-87
2023/05/23 13:39:39;;;;;;;8.48;6.57;;;;;;;;;;5053158;28;20065;-88
2023/05/23 13:42:06;;;;;;;9.48;7.50;;;;;;;;;;5044401;28;20029;-87
2023/05/23 13:44:32;;;;;;;11.25;7.13;;;;;;;;;;5034364;28;20487;-87
2023/05/23 13:47:09;;;;;;;8.48;6.75;;;;;;;;;;5034644;28;20075;-88
2023/05/23 13:49:35;;;;;;;9.40;6.97;;;;;;;;;;5039328;28;20095;-88
2023/05/23 13:52:00;;;;;;;12.88;7.32;;;;;;;;;;5051615;28;20029;-89
2023/05/23 13:54:26;;;;;;;10.45;6.80;;;;;;;;;;5048085;28;20057;-88
2023/05/23 13:56:51;;;;;;;8.82;6.40;;;;;;;;;;5043581;28;20387;-88
2023/05/23 13:59:20;;;;;;;9.07;6.10;;;;;;;;;;5039407;28;20044;-87
2023/05/23 14:01:46;;;;;;;7.20;6.03;;;;;;;;;;5036617;28;20025;-88
2023/05/23 14:04:12;;;;;;;7.93;5.60;;;;;;;;;;5030693;28;20060;-88
2023/05/23 14:06:38;;;;;;;8.45;6.25;;;;;;;;;;5032818;28;20071;-88
2023/05/23 14:09:04;;;;;;;7.65;5.70;;;;;;;;;;5034737;28;20033;-88
2023/05/23 14:11:30;;;;;;;6.25;5.25;;;;;;;;;;5016508;28;20372;-88
2023/05/23 14:13:56;;;;;;;6.97;5.25;;;;;;;;;;5034056;28;20502;-88
2023/05/23 14:16:21;;;;;;;9.02;5.35;;;;;;;;;;5048509;28;20029;-87
2023/05/23 14:18:47;;;;;;;9.55;5.30;;;;;;;;;;5047673;28;20033;-87
2023/05/23 14:21:12;;;;;;;7.20;5.15;;;;;;;;;;5044890;28;20470;-87
2023/05/23 14:23:38;;;;;;;7.13;5.10;;;;;;;;;;5042054;28;20032;-87
2023/05/23 14:26:04;;;;;;;5.45;4.60;;;;;;;;;;5038136;28;20420;-88
2023/05/23 14:28:29;;;;;;;7.20;4.97;;;;;;;;;;5035816;28;20033;-88
2023/05/23 14:30:55;;;;;;;8.73;5.07;;;;;;;;;;5034177;28;20060;-87
2023/05/23 14:33:21;;;;;;;10.38;5.10;;;;;;;;;;5033583;28;20029;-86
2023/05/23 14:35:46;;;;;;;9.95;5.82;;;;;;;;;;5032625;28;20016;-87
2023/05/23 14:38:12;;;;;;;8.10;5.05;;;;;;;;;;5033453;28;20040;-88
2023/05/23 14:40:37;;;;;;;5.47;4.53;;;;;;;;;;5043847;28;20041;-86
2023/05/23 14:43:04;;;;;;;6.25;4.70;;;;;;;;;;5048492;28;20032;-86